sensor_id;sensor_type;location;lat;lon;timestamp;pressure;altitude;pressure_sealevel;temperature
73734;BMP280;62039;50.000;9.064;2023-06-14T00:02:04;99976.78;;;20.36
73734;BMP280;62039;50.000;9.064;2023-06-14T00:04:31;99977.50;;;20.31
73734;BMP280;62039;50.000;9.064;2023-06-14T00:06:58;99977.16;;;20.28
73734;BMP280;62039;50.000;9.064;2023-06-14T00:09:25;99981.28;;;20.24
73734;BMP280;62039;50.000;9.064;2023-06-14T00:11:52;99988.94;;;20.20
73734;BMP280;62039;50.000;9.064;2023-06-14T00:14:19;99983.50;;;20.15
73734;BMP280;62039;50.000;9.064;2023-06-14T00:16:46;99980.69;;;20.10
73734;BMP280;62039;50.000;9.064;2023-06-14T00:19:16;99984.06;;;20.06
73734;BMP280;62039;50.000;9.064;2023-06-14T00:21:43;99982.31;;;19.99
73734;BMP280;62039;50.000;9.064;2023-06-14T00:24:10;99981.41;;;19.94
73734;BMP280;62039;50.000;9.064;2023-06-14T00:26:37;99987.38;;;19.89
73734;BMP280;62039;50.000;9.064;2023-06-14T00:29:04;99980.34;;;19.83
73734;BMP280;62039;50.000;9.064;2023-06-14T00:31:31;99983.69;;;19.79
73734;BMP280;62039;50.000;9.064;2023-06-14T00:33:58;99987.47;;;19.71
73734;BMP280;62039;50.000;9.064;2023-06-14T00:36:28;99988.19;;;19.67
73734;BMP280;62039;50.000;9.064;2023-06-14T00:38:55;99994.38;;;19.61
73734;BMP280;62039;50.000;9.064;2023-06-14T00:41:22;99989.75;;;19.56
73734;BMP280;62039;50.000;9.064;2023-06-14T00:43:50;99993.69;;;19.53
73734;BMP280;62039;50.000;9.064;2023-06-14T00:46:17;99999.59;;;19.49
73734;BMP280;62039;50.000;9.064;2023-06-14T00:48:44;99997.63;;;19.44
73734;BMP280;62039;50.000;9.064;2023-06-14T00:51:11;99992.00;;;19.41
73734;BMP280;62039;50.000;9.064;2023-06-14T00:53:41;99985.53;;;19.37
73734;BMP280;62039;50.000;9.064;2023-06-14T00:56:08;99988.06;;;19.32
73734;BMP280;62039;50.000;9.064;2023-06-14T00:58:35;99992.97;;;19.28
73734;BMP280;62039;50.000;9.064;2023-06-14T01:01:02;99989.38;;;19.23
73734;BMP280;62039;50.000;9.064;2023-06-14T01:03:29;99993.53;;;19.18
73734;BMP280;62039;50.000;9.064;2023-06-14T01:06:02;99987.06;;;19.14
73734;BMP280;62039;50.000;9.064;2023-06-14T01:08:43;99992.00;;;19.11
73734;BMP280;62039;50.000;9.064;2023-06-14T01:11:19;99988.41;;;19.05
73734;BMP280;62039;50.000;9.064;2023-06-14T01:13:49;99999.66;;;19.01
73734;BMP280;62039;50.000;9.064;2023-06-14T01:16:17;100000.34;;;18.96
73734;BMP280;62039;50.000;9.064;2023-06-14T01:18:45;100000.00;;;18.93
73734;BMP280;62039;50.000;9.064;2023-06-14T01:21:20;99994.31;;;18.89
73734;BMP280;62039;50.000;9.064;2023-06-14T01:23:50;99995.19;;;18.83
73734;BMP280;62039;50.000;9.064;2023-06-14T01:26:17;99994.22;;;18.77
73734;BMP280;62039;50.000;9.064;2023-06-14T01:28:44;99988.81;;;18.72
73734;BMP280;62039;50.000;9.064;2023-06-14T01:31:11;99994.97;;;18.66
73734;BMP280;62039;50.000;9.064;2023-06-14T01:33:38;99988.72;;;18.61
73734;BMP280;62039;50.000;9.064;2023-06-14T01:36:07;99988.56;;;18.56
73734;BMP280;62039;50.000;9.064;2023-06-14T01:38:36;99992.91;;;18.50
73734;BMP280;62039;50.000;9.064;2023-06-14T01:41:07;99998.88;;;18.46
73734;BMP280;62039;50.000;9.064;2023-06-14T01:43:34;99985.47;;;18.40
73734;BMP280;62039;50.000;9.064;2023-06-14T01:46:02;99982.47;;;18.37
73734;BMP280;62039;50.000;9.064;2023-06-14T01:48:29;99984.97;;;18.32
73734;BMP280;62039;50.000;9.064;2023-06-14T01:50:56;99988.06;;;18.29
73734;BMP280;62039;50.000;9.064;2023-06-14T01:53:23;99989.53;;;18.25
73734;BMP280;62039;50.000;9.064;2023-06-14T01:55:50;99983.81;;;18.21
73734;BMP280;62039;50.000;9.064;2023-06-14T01:58:20;99984.28;;;18.18
73734;BMP280;62039;50.000;9.064;2023-06-14T02:00:47;99989.38;;;18.13
73734;BMP280;62039;50.000;9.064;2023-06-14T02:03:14;99996.13;;;18.09
73734;BMP280;62039;50.000;9.064;2023-06-14T02:05:41;99995.78;;;18.06
73734;BMP280;62039;50.000;9.064;2023-06-14T02:08:08;99996.41;;;18.01
73734;BMP280;62039;50.000;9.064;2023-06-14T02:10:35;99996.84;;;17.98
73734;BMP280;62039;50.000;9.064;2023-06-14T02:13:02;99996.47;;;17.94
73734;BMP280;62039;50.000;9.064;2023-06-14T02:15:32;100003.00;;;17.92
73734;BMP280;62039;50.000;9.064;2023-06-14T02:18:00;100002.81;;;17.87
73734;BMP280;62039;50.000;9.064;2023-06-14T02:20:27;100005.91;;;17.84
73734;BMP280;62039;50.000;9.064;2023-06-14T02:22:54;100002.06;;;17.80
73734;BMP280;62039;50.000;9.064;2023-06-14T02:25:21;100005.16;;;17.77
73734;BMP280;62039;50.000;9.064;2023-06-14T02:27:48;100006.63;;;17.73
73734;BMP280;62039;50.000;9.064;2023-06-14T02:30:15;100001.97;;;17.68
73734;BMP280;62039;50.000;9.064;2023-06-14T02:32:45;100005.84;;;17.66
73734;BMP280;62039;50.000;9.064;2023-06-14T02:35:12;100012.56;;;17.61
73734;BMP280;62039;50.000;9.064;2023-06-14T02:37:39;100013.00;;;17.58
73734;BMP280;62039;50.000;9.064;2023-06-14T02:40:07;100017.06;;;17.54
73734;BMP280;62039;50.000;9.064;2023-06-14T02:42:34;100017.50;;;17.51
73734;BMP280;62039;50.000;9.064;2023-06-14T02:45:01;100011.81;;;17.48
73734;BMP280;62039;50.000;9.064;2023-06-14T02:47:28;100018.75;;;17.42
73734;BMP280;62039;50.000;9.064;2023-06-14T02:49:58;100012.28;;;17.38
73734;BMP280;62039;50.000;9.064;2023-06-14T02:52:25;100015.56;;;17.34
73734;BMP280;62039;50.000;9.064;2023-06-14T02:54:52;100018.44;;;17.32
73734;BMP280;62039;50.000;9.064;2023-06-14T02:57:20;100025.13;;;17.28
73734;BMP280;62039;50.000;9.064;2023-06-14T02:59:47;100020.28;;;17.25
73734;BMP280;62039;50.000;9.064;2023-06-14T03:02:14;100024.16;;;17.22
73734;BMP280;62039;50.000;9.064;2023-06-14T03:04:41;100024.56;;;17.19
73734;BMP280;62039;50.000;9.064;2023-06-14T03:07:10;100033.72;;;17.17
73734;BMP280;62039;50.000;9.064;2023-06-14T03:09:38;100043.06;;;17.13
73734;BMP280;62039;50.000;9.064;2023-06-14T03:12:06;100043.31;;;17.11
73734;BMP280;62039;50.000;9.064;2023-06-14T03:14:33;100045.53;;;17.08
73734;BMP280;62039;50.000;9.064;2023-06-14T03:17:00;100045.97;;;17.05
73734;BMP280;62039;50.000;9.064;2023-06-14T03:19:27;100045.34;;;17.03
73734;BMP280;62039;50.000;9.064;2023-06-14T03:21:54;100045.75;;;17.00
73734;BMP280;62039;50.000;9.064;2023-06-14T03:24:23;100045.38;;;16.96
73734;BMP280;62039;50.000;9.064;2023-06-14T03:26:51;100053.69;;;16.93
73734;BMP280;62039;50.000;9.064;2023-06-14T03:29:18;100053.94;;;16.92
73734;BMP280;62039;50.000;9.064;2023-06-14T03:31:57;100043.94;;;16.87
73734;BMP280;62039;50.000;9.064;2023-06-14T03:34:24;100059.41;;;16.83
73734;BMP280;62039;50.000;9.064;2023-06-14T03:36:52;100058.78;;;16.81
73734;BMP280;62039;50.000;9.064;2023-06-14T03:39:19;100064.47;;;16.78
73734;BMP280;62039;50.000;9.064;2023-06-14T03:41:48;100066.50;;;16.76
73734;BMP280;62039;50.000;9.064;2023-06-14T03:44:16;100073.81;;;16.74
73734;BMP280;62039;50.000;9.064;2023-06-14T03:46:44;100067.34;;;16.70
73734;BMP280;62039;50.000;9.064;2023-06-14T03:49:11;100068.56;;;16.68
73734;BMP280;62039;50.000;9.064;2023-06-14T03:51:38;100069.75;;;16.65
73734;BMP280;62039;50.000;9.064;2023-06-14T03:54:05;100074.47;;;16.63
73734;BMP280;62039;50.000;9.064;2023-06-14T03:56:55;100083.38;;;16.62
73734;BMP280;62039;50.000;9.064;2023-06-14T03:59:22;100084.38;;;16.61
73734;BMP280;62039;50.000;9.064;2023-06-14T04:01:49;100080.13;;;16.60
73734;BMP280;62039;50.000;9.064;2023-06-14T04:04:16;100091.69;;;16.59
73734;BMP280;62039;50.000;9.064;2023-06-14T04:06:43;100092.50;;;16.60
73734;BMP280;62039;50.000;9.064;2023-06-14T04:09:10;100085.41;;;16.60
73734;BMP280;62039;50.000;9.064;2023-06-14T04:11:36;100087.22;;;16.60
73734;BMP280;62039;50.000;9.064;2023-06-14T04:14:06;100091.69;;;16.59
73734;BMP280;62039;50.000;9.064;2023-06-14T04:16:33;100095.94;;;16.60
73734;BMP280;62039;50.000;9.064;2023-06-14T04:19:00;100090.66;;;16.60
73734;BMP280;62039;50.000;9.064;2023-06-14T04:21:27;100105.47;;;16.61
73734;BMP280;62039;50.000;9.064;2023-06-14T04:23:54;100103.47;;;16.63
73734;BMP280;62039;50.000;9.064;2023-06-14T04:26:22;100104.28;;;16.64
73734;BMP280;62039;50.000;9.064;2023-06-14T04:28:52;100103.03;;;16.66
73734;BMP280;62039;50.000;9.064;2023-06-14T04:31:21;100113.38;;;16.68
73734;BMP280;62039;50.000;9.064;2023-06-14T04:33:48;100103.66;;;16.68
73734;BMP280;62039;50.000;9.064;2023-06-14T04:36:15;100106.91;;;16.70
73734;BMP280;62039;50.000;9.064;2023-06-14T04:38:43;100110.72;;;16.74
73734;BMP280;62039;50.000;9.064;2023-06-14T04:41:10;100119.06;;;16.78
73734;BMP280;62039;50.000;9.064;2023-06-14T04:43:37;100118.44;;;16.82
73734;BMP280;62039;50.000;9.064;2023-06-14T04:46:04;100111.72;;;16.86
73734;BMP280;62039;50.000;9.064;2023-06-14T04:48:34;100124.13;;;16.93
73734;BMP280;62039;50.000;9.064;2023-06-14T04:51:01;100116.41;;;16.98
73734;BMP280;62039;50.000;9.064;2023-06-14T04:53:28;100121.66;;;17.04
73734;BMP280;62039;50.000;9.064;2023-06-14T04:55:54;100118.78;;;17.12
73734;BMP280;62039;50.000;9.064;2023-06-14T04:58:21;100123.03;;;17.20
73734;BMP280;62039;50.000;9.064;2023-06-14T05:00:48;100124.81;;;17.26
73734;BMP280;62039;50.000;9.064;2023-06-14T05:03:15;100120.13;;;17.35
73734;BMP280;62039;50.000;9.064;2023-06-14T05:05:45;100126.81;;;17.44
73734;BMP280;62039;50.000;9.064;2023-06-14T05:08:12;100123.13;;;17.51
73734;BMP280;62039;50.000;9.064;2023-06-14T05:10:39;100128.16;;;17.59
73734;BMP280;62039;50.000;9.064;2023-06-14T05:13:06;100129.56;;;17.69
73734;BMP280;62039;50.000;9.064;2023-06-14T05:15:33;100135.19;;;17.79
73734;BMP280;62039;50.000;9.064;2023-06-14T05:18:00;100124.16;;;17.88
73734;BMP280;62039;50.000;9.064;2023-06-14T05:20:27;100126.34;;;17.98
73734;BMP280;62039;50.000;9.064;2023-06-14T05:22:56;100123.00;;;18.09
73734;BMP280;62039;50.000;9.064;2023-06-14T05:25:23;100126.00;;;18.19
73734;BMP280;62039;50.000;9.064;2023-06-14T05:27:50;100125.31;;;18.30
73734;BMP280;62039;50.000;9.064;2023-06-14T05:30:17;100127.25;;;18.41
73734;BMP280;62039;50.000;9.064;2023-06-14T05:32:44;100127.38;;;18.53
73734;BMP280;62039;50.000;9.064;2023-06-14T05:35:11;100126.66;;;18.64
73734;BMP280;62039;50.000;9.064;2023-06-14T05:37:39;100136.28;;;18.77
73734;BMP280;62039;50.000;9.064;2023-06-14T05:40:09;100135.97;;;18.92
73734;BMP280;62039;50.000;9.064;2023-06-14T05:42:36;100138.69;;;19.03
73734;BMP280;62039;50.000;9.064;2023-06-14T05:45:04;100135.91;;;19.16
73734;BMP280;62039;50.000;9.064;2023-06-14T05:47:32;100132.97;;;19.25
73734;BMP280;62039;50.000;9.064;2023-06-14T05:49:59;100132.44;;;19.34
73734;BMP280;62039;50.000;9.064;2023-06-14T05:52:26;100136.38;;;19.43
73734;BMP280;62039;50.000;9.064;2023-06-14T05:54:52;100141.19;;;19.53
73734;BMP280;62039;50.000;9.064;2023-06-14T05:57:22;100137.78;;;19.64
73734;BMP280;62039;50.000;9.064;2023-06-14T05:59:49;100142.91;;;19.77
73734;BMP280;62039;50.000;9.064;2023-06-14T06:02:16;100149.03;;;19.89
73734;BMP280;62039;50.000;9.064;2023-06-14T06:04:43;100148.03;;;20.02
73734;BMP280;62039;50.000;9.064;2023-06-14T06:07:10;100151.59;;;20.14
73734;BMP280;62039;50.000;9.064;2023-06-14T06:09:37;100148.47;;;20.29
73734;BMP280;62039;50.000;9.064;2023-06-14T06:12:06;100142.28;;;20.47
73734;BMP280;62039;50.000;9.064;2023-06-14T06:14:36;100150.84;;;20.60
73734;BMP280;62039;50.000;9.064;2023-06-14T06:17:04;100148.56;;;20.75
73734;BMP280;62039;50.000;9.064;2023-06-14T06:19:31;100148.06;;;20.90
73734;BMP280;62039;50.000;9.064;2023-06-14T06:21:58;100153.47;;;21.07
73734;BMP280;62039;50.000;9.064;2023-06-14T06:24:25;100148.50;;;21.22
73734;BMP280;62039;50.000;9.064;2023-06-14T06:26:52;100154.72;;;21.39
73734;BMP280;62039;50.000;9.064;2023-06-14T06:29:19;100147.84;;;21.55
73734;BMP280;62039;50.000;9.064;2023-06-14T06:31:49;100155.84;;;21.72
73734;BMP280;62039;50.000;9.064;2023-06-14T06:34:16;100157.19;;;21.86
73734;BMP280;62039;50.000;9.064;2023-06-14T06:36:42;100156.69;;;22.01
73734;BMP280;62039;50.000;9.064;2023-06-14T06:39:10;100162.50;;;22.14
73734;BMP280;62039;50.000;9.064;2023-06-14T06:41:37;100153.38;;;22.27
73734;BMP280;62039;50.000;9.064;2023-06-14T06:44:04;100156.53;;;22.41
73734;BMP280;62039;50.000;9.064;2023-06-14T06:46:31;100156.00;;;22.55
73734;BMP280;62039;50.000;9.064;2023-06-14T06:49:01;100157.03;;;22.71
73734;BMP280;62039;50.000;9.064;2023-06-14T06:51:28;100161.50;;;22.87
73734;BMP280;62039;50.000;9.064;2023-06-14T06:53:55;100160.66;;;23.03
73734;BMP280;62039;50.000;9.064;2023-06-14T06:56:22;100154.78;;;23.18
73734;BMP280;62039;50.000;9.064;2023-06-14T06:58:49;100161.06;;;23.34
73734;BMP280;62039;50.000;9.064;2023-06-14T07:01:16;100162.31;;;23.48
73734;BMP280;62039;50.000;9.064;2023-06-14T07:03:43;100155.56;;;23.62
73734;BMP280;62039;50.000;9.064;2023-06-14T07:06:13;100165.34;;;23.78
73734;BMP280;62039;50.000;9.064;2023-06-14T07:08:40;100163.31;;;23.91
73734;BMP280;62039;50.000;9.064;2023-06-14T07:11:07;100159.69;;;24.02
73734;BMP280;62039;50.000;9.064;2023-06-14T07:13:34;100166.69;;;24.13
73734;BMP280;62039;50.000;9.064;2023-06-14T07:16:01;100167.38;;;24.25
73734;BMP280;62039;50.000;9.064;2023-06-14T07:18:28;100160.25;;;24.36
73734;BMP280;62039;50.000;9.064;2023-06-14T07:20:55;100162.72;;;24.47
73734;BMP280;62039;50.000;9.064;2023-06-14T07:23:24;100164.16;;;24.60
73734;BMP280;62039;50.000;9.064;2023-06-14T07:25:51;100162.16;;;24.72
73734;BMP280;62039;50.000;9.064;2023-06-14T07:28:18;100153.13;;;24.83
73734;BMP280;62039;50.000;9.064;2023-06-14T07:30:45;100157.75;;;24.98
73734;BMP280;62039;50.000;9.064;2023-06-14T07:33:12;100149.00;;;25.13
73734;BMP280;62039;50.000;9.064;2023-06-14T07:35:39;100161.63;;;25.27
73734;BMP280;62039;50.000;9.064;2023-06-14T07:38:08;100156.34;;;25.42
73734;BMP280;62039;50.000;9.064;2023-06-14T07:40:38;100166.00;;;25.59
73734;BMP280;62039;50.000;9.064;2023-06-14T07:43:05;100158.31;;;25.72
73734;BMP280;62039;50.000;9.064;2023-06-14T07:45:32;100166.63;;;25.86
73734;BMP280;62039;50.000;9.064;2023-06-14T07:47:59;100159.97;;;25.99
73734;BMP280;62039;50.000;9.064;2023-06-14T07:50:26;100160.50;;;26.11
73734;BMP280;62039;50.000;9.064;2023-06-14T07:52:53;100160.25;;;26.23
73734;BMP280;62039;50.000;9.064;2023-06-14T07:55:20;100166.66;;;26.37
73734;BMP280;62039;50.000;9.064;2023-06-14T07:57:49;100161.03;;;26.48
73734;BMP280;62039;50.000;9.064;2023-06-14T08:00:17;100160.75;;;26.60
73734;BMP280;62039;50.000;9.064;2023-06-14T08:02:45;100159.69;;;26.71
73734;BMP280;62039;50.000;9.064;2023-06-14T08:05:12;100160.19;;;26.83
73734;BMP280;62039;50.000;9.064;2023-06-14T08:07:40;100161.47;;;26.96
73734;BMP280;62039;50.000;9.064;2023-06-14T08:10:07;100157.69;;;27.07
73734;BMP280;62039;50.000;9.064;2023-06-14T08:12:34;100156.84;;;27.17
73734;BMP280;62039;50.000;9.064;2023-06-14T08:15:05;100149.88;;;27.26
73734;BMP280;62039;50.000;9.064;2023-06-14T08:17:40;100162.72;;;27.34
73734;BMP280;62039;50.000;9.064;2023-06-14T08:20:08;100157.84;;;27.41
73734;BMP280;62039;50.000;9.064;2023-06-14T08:22:35;100165.31;;;27.49
73734;BMP280;62039;50.000;9.064;2023-06-14T08:25:03;100153.97;;;27.57
73734;BMP280;62039;50.000;9.064;2023-06-14T08:27:30;100149.91;;;27.65
73734;BMP280;62039;50.000;9.064;2023-06-14T08:29:57;100157.41;;;27.73
73734;BMP280;62039;50.000;9.064;2023-06-14T08:32:27;100147.97;;;27.81
73734;BMP280;62039;50.000;9.064;2023-06-14T08:34:54;100143.91;;;27.88
73734;BMP280;62039;50.000;9.064;2023-06-14T08:37:41;100149.44;;;27.97
73734;BMP280;62039;50.000;9.064;2023-06-14T08:40:19;100149.09;;;28.08
73734;BMP280;62039;50.000;9.064;2023-06-14T08:42:50;100154.41;;;28.19
73734;BMP280;62039;50.000;9.064;2023-06-14T08:45:17;100156.47;;;28.27
73734;BMP280;62039;50.000;9.064;2023-06-14T08:47:47;100148.63;;;28.35
73734;BMP280;62039;50.000;9.064;2023-06-14T08:50:14;100150.69;;;28.43
73734;BMP280;62039;50.000;9.064;2023-06-14T08:52:55;100151.66;;;28.52
73734;BMP280;62039;50.000;9.064;2023-06-14T08:55:23;100155.34;;;28.62
73734;BMP280;62039;50.000;9.064;2023-06-14T08:57:50;100145.88;;;28.69
73734;BMP280;62039;50.000;9.064;2023-06-14T09:00:30;100149.25;;;28.80
73734;BMP280;62039;50.000;9.064;2023-06-14T09:03:03;100154.00;;;28.88
73734;BMP280;62039;50.000;9.064;2023-06-14T09:05:30;100159.84;;;28.95
73734;BMP280;62039;50.000;9.064;2023-06-14T09:07:57;100157.00;;;29.05
73734;BMP280;62039;50.000;9.064;2023-06-14T09:10:24;100159.09;;;29.13
73734;BMP280;62039;50.000;9.064;2023-06-14T09:12:52;100152.78;;;29.23
73734;BMP280;62039;50.000;9.064;2023-06-14T09:15:19;100160.44;;;29.35
73734;BMP280;62039;50.000;9.064;2023-06-14T09:17:46;100164.28;;;29.47
73734;BMP280;62039;50.000;9.064;2023-06-14T09:20:16;100160.66;;;29.57
73734;BMP280;62039;50.000;9.064;2023-06-14T09:22:44;100157.84;;;29.67
73734;BMP280;62039;50.000;9.064;2023-06-14T09:25:12;100159.88;;;29.75
73734;BMP280;62039;50.000;9.064;2023-06-14T09:27:59;100156.31;;;29.80
73734;BMP280;62039;50.000;9.064;2023-06-14T09:30:26;100161.31;;;29.86
73734;BMP280;62039;50.000;9.064;2023-06-14T09:32:53;100161.25;;;29.91
73734;BMP280;62039;50.000;9.064;2023-06-14T09:35:23;100164.22;;;29.90
73734;BMP280;62039;50.000;9.064;2023-06-14T09:37:50;100163.88;;;29.78
73734;BMP280;62039;50.000;9.064;2023-06-14T09:40:20;100165.41;;;29.65
73734;BMP280;62039;50.000;9.064;2023-06-14T09:42:47;100162.78;;;29.60
73734;BMP280;62039;50.000;9.064;2023-06-14T09:45:15;100162.31;;;29.58
73734;BMP280;62039;50.000;9.064;2023-06-14T09:47:43;100150.44;;;29.59
73734;BMP280;62039;50.000;9.064;2023-06-14T09:50:33;100163.59;;;29.60
73734;BMP280;62039;50.000;9.064;2023-06-14T09:53:05;100162.22;;;29.63
73734;BMP280;62039;50.000;9.064;2023-06-14T09:55:34;100167.00;;;29.66
73734;BMP280;62039;50.000;9.064;2023-06-14T09:58:04;100171.22;;;29.72
73734;BMP280;62039;50.000;9.064;2023-06-14T10:00:32;100176.81;;;29.76
73734;BMP280;62039;50.000;9.064;2023-06-14T10:03:05;100178.91;;;29.79
73734;BMP280;62039;50.000;9.064;2023-06-14T10:05:39;100171.38;;;29.81
73734;BMP280;62039;50.000;9.064;2023-06-14T10:08:10;100169.75;;;29.80
73734;BMP280;62039;50.000;9.064;2023-06-14T10:10:39;100168.97;;;29.79
73734;BMP280;62039;50.000;9.064;2023-06-14T10:13:06;100163.09;;;29.77
73734;BMP280;62039;50.000;9.064;2023-06-14T10:15:39;100174.41;;;29.74
73734;BMP280;62039;50.000;9.064;2023-06-14T10:18:13;100170.22;;;29.68
73734;BMP280;62039;50.000;9.064;2023-06-14T10:20:51;100170.56;;;29.61
73734;BMP280;62039;50.000;9.064;2023-06-14T10:23:25;100166.91;;;29.52
73734;BMP280;62039;50.000;9.064;2023-06-14T10:25:56;100168.38;;;29.45
73734;BMP280;62039;50.000;9.064;2023-06-14T10:28:23;100165.81;;;29.35
73734;BMP280;62039;50.000;9.064;2023-06-14T10:31:02;100171.34;;;29.24
73734;BMP280;62039;50.000;9.064;2023-06-14T10:33:29;100171.44;;;29.14
73734;BMP280;62039;50.000;9.064;2023-06-14T10:36:10;100172.91;;;29.02
73734;BMP280;62039;50.000;9.064;2023-06-14T10:38:37;100171.13;;;28.92
73734;BMP280;62039;50.000;9.064;2023-06-14T10:41:05;100179.06;;;28.83
73734;BMP280;62039;50.000;9.064;2023-06-14T10:43:33;100188.00;;;28.74
73734;BMP280;62039;50.000;9.064;2023-06-14T10:46:16;100177.34;;;28.64
73734;BMP280;62039;50.000;9.064;2023-06-14T10:48:44;100169.91;;;28.56
73734;BMP280;62039;50.000;9.064;2023-06-14T10:51:20;100171.84;;;28.50
73734;BMP280;62039;50.000;9.064;2023-06-14T10:53:48;100180.53;;;28.42
73734;BMP280;62039;50.000;9.064;2023-06-14T10:56:33;100182.78;;;28.30
73734;BMP280;62039;50.000;9.064;2023-06-14T10:59:00;100187.94;;;28.21
73734;BMP280;62039;50.000;9.064;2023-06-14T11:01:36;100183.16;;;28.13
73734;BMP280;62039;50.000;9.064;2023-06-14T11:04:07;100176.75;;;28.04
73734;BMP280;62039;50.000;9.064;2023-06-14T11:06:45;100183.84;;;27.95
73734;BMP280;62039;50.000;9.064;2023-06-14T11:09:29;100189.78;;;27.87
73734;BMP280;62039;50.000;9.064;2023-06-14T11:12:02;100182.31;;;27.79
73734;BMP280;62039;50.000;9.064;2023-06-14T11:14:29;100185.31;;;27.72
73734;BMP280;62039;50.000;9.064;2023-06-14T11:16:57;100183.97;;;27.64
73734;BMP280;62039;50.000;9.064;2023-06-14T11:19:24;100182.19;;;27.55
73734;BMP280;62039;50.000;9.064;2023-06-14T11:21:53;100181.69;;;27.48
73734;BMP280;62039;50.000;9.064;2023-06-14T11:24:20;100182.53;;;27.38
73734;BMP280;62039;50.000;9.064;2023-06-14T11:26:47;100188.75;;;27.28
73734;BMP280;62039;50.000;9.064;2023-06-14T11:29:15;100189.28;;;27.20
73734;BMP280;62039;50.000;9.064;2023-06-14T11:31:43;100182.59;;;27.13
73734;BMP280;62039;50.000;9.064;2023-06-14T11:34:12;100181.03;;;27.07
73734;BMP280;62039;50.000;9.064;2023-06-14T11:36:39;100162.28;;;27.02
73734;BMP280;62039;50.000;9.064;2023-06-14T11:39:09;100172.47;;;27.00
73734;BMP280;62039;50.000;9.064;2023-06-14T11:41:37;100170.06;;;26.98
73734;BMP280;62039;50.000;9.064;2023-06-14T11:44:05;100180.22;;;26.96
73734;BMP280;62039;50.000;9.064;2023-06-14T11:46:32;100169.81;;;26.94
73734;BMP280;62039;50.000;9.064;2023-06-14T11:48:59;100175.97;;;26.95
73734;BMP280;62039;50.000;9.064;2023-06-14T11:51:26;100144.88;;;26.99
73734;BMP280;62039;50.000;9.064;2023-06-14T11:53:53;100174.59;;;27.03
73734;BMP280;62039;50.000;9.064;2023-06-14T11:56:23;100173.25;;;27.05
73734;BMP280;62039;50.000;9.064;2023-06-14T11:58:50;100181.03;;;27.07
73734;BMP280;62039;50.000;9.064;2023-06-14T12:01:17;100169.22;;;27.08
73734;BMP280;62039;50.000;9.064;2023-06-14T12:03:48;100185.31;;;27.08
73734;BMP280;62039;50.000;9.064;2023-06-14T12:06:15;100180.22;;;27.06
73734;BMP280;62039;50.000;9.064;2023-06-14T12:08:43;100183.69;;;27.07
73734;BMP280;62039;50.000;9.064;2023-06-14T12:11:11;100171.91;;;27.08
73734;BMP280;62039;50.000;9.064;2023-06-14T12:13:41;100182.34;;;27.09
73734;BMP280;62039;50.000;9.064;2023-06-14T12:16:09;100191.19;;;27.10
73734;BMP280;62039;50.000;9.064;2023-06-14T12:18:38;100181.00;;;27.12
73734;BMP280;62039;50.000;9.064;2023-06-14T12:21:06;100174.56;;;27.13
73734;BMP280;62039;50.000;9.064;2023-06-14T12:23:42;100168.63;;;27.16
73734;BMP280;62039;50.000;9.064;2023-06-14T12:26:09;100158.19;;;27.19
73734;BMP280;62039;50.000;9.064;2023-06-14T12:28:42;100157.91;;;27.26
73734;BMP280;62039;50.000;9.064;2023-06-14T12:31:11;100165.13;;;27.30
73734;BMP280;62039;50.000;9.064;2023-06-14T12:33:38;100160.03;;;27.34
73734;BMP280;62039;50.000;9.064;2023-06-14T12:36:07;100166.44;;;27.38
73734;BMP280;62039;50.000;9.064;2023-06-14T12:38:35;100160.53;;;27.41
73734;BMP280;62039;50.000;9.064;2023-06-14T12:41:02;100165.06;;;27.46
73734;BMP280;62039;50.000;9.064;2023-06-14T12:43:29;100165.84;;;27.46
73734;BMP280;62039;50.000;9.064;2023-06-14T12:45:59;100164.78;;;27.47
73734;BMP280;62039;50.000;9.064;2023-06-14T12:48:26;100174.44;;;27.43
73734;BMP280;62039;50.000;9.064;2023-06-14T12:50:53;100170.19;;;27.42
73734;BMP280;62039;50.000;9.064;2023-06-14T12:53:20;100165.09;;;27.41
73734;BMP280;62039;50.000;9.064;2023-06-14T12:55:47;100169.66;;;27.40
73734;BMP280;62039;50.000;9.064;2023-06-14T12:58:14;100165.88;;;27.41
73734;BMP280;62039;50.000;9.064;2023-06-14T13:00:41;100165.09;;;27.41
73734;BMP280;62039;50.000;9.064;2023-06-14T13:03:10;100163.72;;;27.43
73734;BMP280;62039;50.000;9.064;2023-06-14T13:05:38;100149.81;;;27.41
73734;BMP280;62039;50.000;9.064;2023-06-14T13:08:05;100158.13;;;27.40
73734;BMP280;62039;50.000;9.064;2023-06-14T13:10:31;100156.50;;;27.39
73734;BMP280;62039;50.000;9.064;2023-06-14T13:12:58;100168.03;;;27.39
73734;BMP280;62039;50.000;9.064;2023-06-14T13:15:25;100165.63;;;27.38
73734;BMP280;62039;50.000;9.064;2023-06-14T13:17:53;100166.44;;;27.38
73734;BMP280;62039;50.000;9.064;2023-06-14T13:20:23;100164.81;;;27.37
73734;BMP280;62039;50.000;9.064;2023-06-14T13:22:50;100162.72;;;27.34
73734;BMP280;62039;50.000;9.064;2023-06-14T13:25:17;100164.84;;;27.32
73734;BMP280;62039;50.000;9.064;2023-06-14T13:27:44;100168.09;;;27.29
73734;BMP280;62039;50.000;9.064;2023-06-14T13:30:12;100164.63;;;27.28
73734;BMP280;62039;50.000;9.064;2023-06-14T13:32:39;100157.91;;;27.26
73734;BMP280;62039;50.000;9.064;2023-06-14T13:35:07;100162.19;;;27.27
73734;BMP280;62039;50.000;9.064;2023-06-14T13:37:36;100158.97;;;27.30
73734;BMP280;62039;50.000;9.064;2023-06-14T13:40:04;100151.19;;;27.33
73734;BMP280;62039;50.000;9.064;2023-06-14T13:42:32;100152.22;;;27.38
73734;BMP280;62039;50.000;9.064;2023-06-14T13:44:59;100152.22;;;27.43
73734;BMP280;62039;50.000;9.064;2023-06-14T13:47:26;100155.66;;;27.48
73734;BMP280;62039;50.000;9.064;2023-06-14T13:49:53;100145.44;;;27.50
73734;BMP280;62039;50.000;9.064;2023-06-14T13:52:25;100147.00;;;27.56
73734;BMP280;62039;50.000;9.064;2023-06-14T13:54:55;100140.31;;;27.59
73734;BMP280;62039;50.000;9.064;2023-06-14T13:57:22;100138.69;;;27.63
73734;BMP280;62039;50.000;9.064;2023-06-14T13:59:49;100143.75;;;27.64
73734;BMP280;62039;50.000;9.064;2023-06-14T14:02:16;100134.34;;;27.67
73734;BMP280;62039;50.000;9.064;2023-06-14T14:04:43;100143.19;;;27.67
73734;BMP280;62039;50.000;9.064;2023-06-14T14:07:10;100144.00;;;27.68